Time;durP1;ratioP1;P1;durP2;ratioP2;P2;SDS_P1;SDS_P2;PMS_P1;PMS_P2;Temp;Humidity;BMP_temperature;BMP_pressure;BME280_temperature;BME280_humidity;BME280_pressure;Samples;Min_cycle;Max_cycle;Signal;HPM_P1;HPM_P2
2022/07/31 00:01:26;;;;;;;0.30;0.30;;;18.20;99.90;;;;;;4908543;28;20138;-83
2022/07/31 00:03:52;;;;;;;0.32;0.32;;;18.20;99.90;;;;;;4903508;28;20043;-83
2022/07/31 00:06:18;;;;;;;0.30;0.30;;;18.20;99.90;;;;;;4907240;28;20051;-84
2022/07/31 00:08:44;;;;;;;0.30;0.30;;;18.20;99.90;;;;;;4920993;28;20220;-84
2022/07/31 00:11:10;;;;;;;0.30;0.30;;;18.10;99.90;;;;;;4922162;28;20129;-83
2022/07/31 00:13:36;;;;;;;0.30;0.30;;;18.10;99.90;;;;;;4918913;28;20046;-83
2022/07/31 00:16:03;;;;;;;0.30;0.30;;;18.10;99.90;;;;;;4922494;28;20051;-84
2022/07/31 00:18:28;;;;;;;0.30;0.30;;;18.10;99.90;;;;;;4902835;28;20683;-84
2022/07/31 00:20:54;;;;;;;0.30;0.30;;;18.10;99.90;;;;;;4910318;28;20057;-83
2022/07/31 00:23:20;;;;;;;0.30;0.30;;;18.00;99.90;;;;;;4901105;28;20077;-85
2022/07/31 00:25:45;;;;;;;0.30;0.30;;;18.00;99.90;;;;;;4921171;28;20051;-83
2022/07/31 00:28:11;;;;;;;0.30;0.30;;;18.00;99.90;;;;;;4923402;28;20082;-83
2022/07/31 00:30:37;;;;;;;0.30;0.30;;;18.00;99.90;;;;;;4940479;28;20438;-83
2022/07/31 00:33:03;;;;;;;0.30;0.30;;;18.00;99.90;;;;;;4922822;28;20047;-84
2022/07/31 00:35:29;;;;;;;0.30;0.30;;;18.00;99.90;;;;;;4904392;28;20051;-84
2022/07/31 00:37:54;;;;;;;0.30;0.30;;;18.00;99.90;;;;;;4912898;28;20047;-83
2022/07/31 00:40:20;;;;;;;0.30;0.30;;;18.00;99.90;;;;;;4919920;28;20062;-82
2022/07/31 00:42:46;;;;;;;0.30;0.30;;;18.00;99.90;;;;;;4909553;28;20050;-83
2022/07/31 00:45:12;;;;;;;0.30;0.30;;;17.90;99.90;;;;;;4923557;28;20075;-84
2022/07/31 00:47:37;;;;;;;0.30;0.30;;;17.90;99.90;;;;;;4914686;28;20047;-83
2022/07/31 00:50:04;;;;;;;0.30;0.30;;;17.80;99.90;;;;;;4922843;28;20059;-83
2022/07/31 00:52:36;;;;;;;0.30;0.30;;;17.80;99.90;;;;;;4906344;28;20121;-83
2022/07/31 00:55:02;;;;;;;0.30;0.30;;;17.90;99.90;;;;;;4919009;28;20043;-83
2022/07/31 00:57:28;;;;;;;0.30;0.30;;;17.80;99.90;;;;;;4921753;28;20161;-83
2022/07/31 00:59:53;;;;;;;0.30;0.30;;;17.80;99.90;;;;;;4920202;28;20051;-83
2022/07/31 01:02:19;;;;;;;0.30;0.30;;;17.70;99.90;;;;;;4907633;28;20078;-83
2022/07/31 01:04:45;;;;;;;0.30;0.30;;;17.60;99.90;;;;;;4905489;28;20178;-83
2022/07/31 01:07:11;;;;;;;0.30;0.30;;;17.60;99.90;;;;;;4907274;28;20082;-82
2022/07/31 01:09:36;;;;;;;0.38;0.38;;;17.50;99.90;;;;;;4920685;28;20055;-84
2022/07/31 01:12:13;;;;;;;0.30;0.30;;;17.30;99.90;;;;;;4925380;28;20042;-83
2022/07/31 01:14:44;;;;;;;0.30;0.30;;;17.40;99.90;;;;;;4922952;28;20545;-84
2022/07/31 01:17:12;;;;;;;0.30;0.30;;;17.40;99.90;;;;;;4926327;28;20090;-83
2022/07/31 01:19:42;;;;;;;0.30;0.30;;;17.40;99.90;;;;;;4920021;28;20057;-84
2022/07/31 01:22:39;;;;;;;0.30;0.30;;;17.40;99.90;;;;;;4924192;28;20043;-83
2022/07/31 01:25:21;;;;;;;0.30;0.30;;;17.30;99.90;;;;;;4917850;28;20102;-82
2022/07/31 01:28:01;;;;;;;0.30;0.30;;;17.20;99.90;;;;;;4920125;28;20050;-84
2022/07/31 01:30:33;;;;;;;0.30;0.30;;;17.20;99.90;;;;;;4918684;28;20704;-83
2022/07/31 01:33:05;;;;;;;0.30;0.30;;;17.10;99.90;;;;;;4929960;28;20042;-84
2022/07/31 01:35:41;;;;;;;0.30;0.30;;;17.10;99.90;;;;;;4921221;28;20059;-83
2022/07/31 01:38:13;;;;;;;0.30;0.30;;;17.10;99.90;;;;;;4921482;28;20050;-83
2022/07/31 01:40:46;;;;;;;0.30;0.30;;;17.00;99.90;;;;;;4920985;28;20043;-84
2022/07/31 01:43:16;;;;;;;0.32;0.32;;;17.00;99.90;;;;;;4930273;28;20110;-84
2022/07/31 01:45:44;;;;;;;0.30;0.30;;;17.00;99.90;;;;;;4928365;28;20605;-83
2022/07/31 01:48:13;;;;;;;0.30;0.30;;;17.00;99.90;;;;;;4923015;28;20505;-83
2022/07/31 01:50:42;;;;;;;0.30;0.30;;;17.10;99.90;;;;;;4918636;28;20943;-82
2022/07/31 01:53:09;;;;;;;0.30;0.30;;;17.00;99.90;;;;;;4927518;28;20054;-83
2022/07/31 01:55:36;;;;;;;0.30;0.30;;;17.10;99.90;;;;;;4907241;28;20057;-84
2022/07/31 01:58:04;;;;;;;0.30;0.30;;;17.10;99.90;;;;;;4907676;28;20055;-84
2022/07/31 02:00:30;;;;;;;0.30;0.30;;;17.10;99.90;;;;;;4933890;28;20055;-84
2022/07/31 02:02:57;;;;;;;0.30;0.30;;;17.10;99.90;;;;;;4924132;28;20086;-82
2022/07/31 02:05:24;;;;;;;0.30;0.30;;;17.10;99.90;;;;;;4898805;28;20463;-82
2022/07/31 02:07:52;;;;;;;0.40;0.40;;;17.10;99.90;;;;;;4918866;28;20069;-83
2022/07/31 02:10:19;;;;;;;0.30;0.30;;;17.00;99.90;;;;;;4918424;28;20061;-82
2022/07/31 02:12:45;;;;;;;0.30;0.30;;;17.00;99.90;;;;;;4918050;28;20055;-82
2022/07/31 02:15:15;;;;;;;0.50;0.50;;;17.10;99.90;;;;;;4922652;28;20039;-82
2022/07/31 02:17:43;;;;;;;0.30;0.30;;;17.00;99.90;;;;;;4915765;28;20059;-83
2022/07/31 02:20:11;;;;;;;0.32;0.32;;;17.00;99.90;;;;;;4922808;28;21065;-83
2022/07/31 02:22:37;;;;;;;0.30;0.30;;;17.00;99.90;;;;;;4917427;28;20272;-82
2022/07/31 02:25:05;;;;;;;0.40;0.40;;;17.00;99.90;;;;;;4920366;28;20209;-83
2022/07/31 02:27:32;;;;;;;0.30;0.30;;;16.90;99.90;;;;;;4921886;28;20051;-83
2022/07/31 02:30:01;;;;;;;0.30;0.30;;;16.80;99.90;;;;;;4914994;28;20064;-82
2022/07/31 02:32:30;;;;;;;0.30;0.30;;;16.90;99.90;;;;;;4889219;28;20059;-83
2022/07/31 02:34:59;;;;;;;0.30;0.30;;;16.90;99.90;;;;;;4913410;28;20055;-82
2022/07/31 02:37:25;;;;;;;0.30;0.30;;;16.80;99.90;;;;;;4919005;28;20054;-82
2022/07/31 02:39:53;;;;;;;0.30;0.30;;;16.90;99.90;;;;;;4913029;28;20063;-82
2022/07/31 02:42:20;;;;;;;0.40;0.40;;;17.00;99.90;;;;;;4883481;28;20114;-82
2022/07/31 02:44:47;;;;;;;0.40;0.40;;;17.00;99.90;;;;;;4925094;28;20055;-82
2022/07/31 02:47:14;;;;;;;0.38;0.38;;;17.10;99.90;;;;;;4915609;28;20083;-82
2022/07/31 02:49:40;;;;;;;0.30;0.30;;;17.10;99.90;;;;;;4922659;28;20058;-82
2022/07/31 02:52:08;;;;;;;0.30;0.30;;;17.20;99.90;;;;;;4936922;28;21207;-82
2022/07/31 02:54:38;;;;;;;0.30;0.30;;;17.20;99.90;;;;;;4919397;28;20058;-82
2022/07/31 02:57:04;;;;;;;0.30;0.30;;;17.20;99.90;;;;;;4916363;28;20106;-82
2022/07/31 02:59:29;;;;;;;0.40;0.40;;;17.20;99.90;;;;;;4916487;28;20050;-83
2022/07/31 03:01:55;;;;;;;0.40;0.40;;;17.10;99.90;;;;;;4919292;28;20054;-82
2022/07/31 03:04:21;;;;;;;0.40;0.40;;;17.10;99.90;;;;;;4902308;28;20034;-83
2022/07/31 03:06:47;;;;;;;0.30;0.30;;;17.10;99.90;;;;;;4923126;28;20038;-83
2022/07/31 03:09:14;;;;;;;0.30;0.30;;;17.10;99.90;;;;;;4911162;28;20057;-82
2022/07/31 03:11:40;;;;;;;0.30;0.30;;;17.10;99.90;;;;;;4924042;28;20053;-83
2022/07/31 03:14:09;;;;;;;0.30;0.30;;;17.20;99.90;;;;;;4939937;28;20042;-82
2022/07/31 03:16:35;;;;;;;0.40;0.40;;;17.20;99.90;;;;;;4923534;28;20043;-83
2022/07/31 03:19:03;;;;;;;0.30;0.30;;;17.20;99.90;;;;;;4905792;28;20082;-83
2022/07/31 03:21:30;;;;;;;0.30;0.30;;;17.20;99.90;;;;;;4924064;28;20108;-82
2022/07/31 03:23:57;;;;;;;0.30;0.30;;;17.20;99.90;;;;;;4924244;28;20086;-82
2022/07/31 03:26:24;;;;;;;0.32;0.32;;;17.30;99.90;;;;;;4940696;28;20664;-82
2022/07/31 03:28:50;;;;;;;0.30;0.30;;;17.30;99.90;;;;;;4924918;28;20064;-82
2022/07/31 03:31:16;;;;;;;0.30;0.30;;;17.20;99.90;;;;;;4937103;28;20047;-82
2022/07/31 03:33:41;;;;;;;0.40;0.40;;;17.30;99.90;;;;;;4933219;28;20164;-82
2022/07/31 03:36:08;;;;;;;0.30;0.30;;;17.30;99.90;;;;;;4915055;28;20152;-83
2022/07/31 03:38:34;;;;;;;0.40;0.40;;;17.40;99.90;;;;;;4929612;28;20057;-82
2022/07/31 03:41:00;;;;;;;0.30;0.30;;;17.40;99.90;;;;;;4936358;28;20046;-82
2022/07/31 03:43:29;;;;;;;0.50;0.50;;;17.40;99.90;;;;;;4937500;28;20046;-82
2022/07/31 03:45:58;;;;;;;0.35;0.35;;;17.40;99.90;;;;;;4934117;28;20050;-83
2022/07/31 03:48:24;;;;;;;0.30;0.30;;;17.40;99.90;;;;;;4955994;28;21018;-83
2022/07/31 03:50:50;;;;;;;0.30;0.30;;;17.50;99.90;;;;;;4930783;28;20071;-82
2022/07/31 03:53:17;;;;;;;0.40;0.40;;;17.40;99.90;;;;;;4927231;28;20130;-82
2022/07/31 03:55:44;;;;;;;0.30;0.30;;;17.40;99.90;;;;;;4921544;28;20634;-83
2022/07/31 03:58:11;;;;;;;0.30;0.30;;;17.50;99.90;;;;;;4918112;28;20126;-83
2022/07/31 04:00:37;;;;;;;0.30;0.30;;;17.50;99.90;;;;;;4921648;28;20055;-82
2022/07/31 04:03:11;;;;;;;0.38;0.38;;;17.50;99.90;;;;;;4925798;28;20050;-82
2022/07/31 04:05:37;;;;;;;;;;;17.60;99.90;;;;;;4920643;28;20063;-82
2022/07/31 04:08:04;;;;;;;0.30;0.30;;;17.60;99.90;;;;;;4922689;28;19934;-82
2022/07/31 04:10:30;;;;;;;0.40;0.40;;;17.60;99.90;;;;;;4905065;28;20054;-82
2022/07/31 04:12:56;;;;;;;0.35;0.35;;;17.60;99.90;;;;;;4938986;28;20054;-83
2022/07/31 04:15:22;;;;;;;0.40;0.40;;;17.60;99.90;;;;;;4920673;28;20056;-82
2022/07/31 04:17:48;;;;;;;0.30;0.30;;;17.70;99.90;;;;;;4921613;28;20054;-82
2022/07/31 04:20:14;;;;;;;0.30;0.30;;;17.60;99.90;;;;;;4927122;28;20677;-81
2022/07/31 04:22:40;;;;;;;0.30;0.30;;;17.70;99.90;;;;;;4922298;28;20058;-84
2022/07/31 04:25:06;;;;;;;0.35;0.35;;;17.80;99.90;;;;;;4919811;28;20043;-82
2022/07/31 04:27:34;;;;;;;0.30;0.30;;;17.80;99.90;;;;;;4899429;28;20501;-82
2022/07/31 04:30:01;;;;;;;0.30;0.30;;;17.80;99.90;;;;;;4922465;28;20059;-82
2022/07/31 04:32:27;;;;;;;0.30;0.30;;;17.80;99.90;;;;;;4922506;28;20086;-83
2022/07/31 04:34:53;;;;;;;0.40;0.40;;;17.70;99.90;;;;;;4923445;28;20134;-83
2022/07/31 04:37:19;;;;;;;0.30;0.30;;;17.80;99.90;;;;;;4916006;28;20052;-83
2022/07/31 04:39:44;;;;;;;0.40;0.40;;;17.80;99.90;;;;;;4928589;28;20840;-83
2022/07/31 04:42:10;;;;;;;0.30;0.30;;;17.80;99.90;;;;;;4936331;28;20083;-82
2022/07/31 04:44:36;;;;;;;0.40;0.40;;;17.80;99.90;;;;;;4932482;28;20039;-82
2022/07/31 04:47:04;;;;;;;0.30;0.30;;;17.80;99.90;;;;;;4933559;28;20043;-82
2022/07/31 04:49:31;;;;;;;0.30;0.30;;;17.90;99.90;;;;;;4933039;28;20165;-82
2022/07/31 04:51:58;;;;;;;0.30;0.30;;;17.90;99.90;;;;;;4929116;28;20058;-83
2022/07/31 04:54:24;;;;;;;0.30;0.30;;;17.90;99.90;;;;;;4936225;28;20235;-83
2022/07/31 04:56:50;;;;;;;0.40;0.40;;;17.90;99.90;;;;;;4930060;28;20139;-82
2022/07/31 04:59:19;;;;;;;0.30;0.30;;;17.90;99.90;;;;;;4938214;28;20046;-82
2022/07/31 05:01:45;;;;;;;0.40;0.40;;;17.90;99.90;;;;;;4932322;28;20049;-82
2022/07/31 05:04:11;;;;;;;0.40;0.40;;;17.90;99.90;;;;;;4933279;28;20058;-83
2022/07/31 05:06:40;;;;;;;0.30;0.30;;;17.90;99.90;;;;;;4935967;28;20351;-83
2022/07/31 05:09:08;;;;;;;0.30;0.30;;;18.00;99.90;;;;;;4918782;28;20069;-83
2022/07/31 05:11:34;;;;;;;0.40;0.40;;;18.00;99.90;;;;;;4932944;28;20051;-82
2022/07/31 05:14:02;;;;;;;0.40;0.40;;;18.10;99.90;;;;;;4929359;28;20039;-82
2022/07/31 05:16:30;;;;;;;0.30;0.30;;;18.10;99.90;;;;;;4933920;28;20158;-82
2022/07/31 05:18:57;;;;;;;0.30;0.30;;;18.10;99.90;;;;;;4932053;28;20062;-83
2022/07/31 05:21:25;;;;;;;0.30;0.30;;;18.20;99.90;;;;;;4934243;28;20074;-83
2022/07/31 05:23:52;;;;;;;0.30;0.30;;;18.30;99.90;;;;;;4948447;28;20059;-82
2022/07/31 05:26:19;;;;;;;0.30;0.30;;;18.30;99.90;;;;;;4933241;28;20046;-83
2022/07/31 05:28:46;;;;;;;0.30;0.30;;;18.40;99.90;;;;;;4933320;28;20051;-83
2022/07/31 05:31:12;;;;;;;0.40;0.40;;;18.40;99.90;;;;;;4933561;28;20058;-82
2022/07/31 05:33:38;;;;;;;0.30;0.30;;;18.40;99.90;;;;;;4930094;28;20634;-82
2022/07/31 05:36:05;;;;;;;0.30;0.30;;;18.50;99.90;;;;;;4932002;28;20058;-82
2022/07/31 05:38:31;;;;;;;0.30;0.30;;;18.60;99.90;;;;;;4931780;28;20469;-81
2022/07/31 05:40:57;;;;;;;0.30;0.30;;;18.60;99.90;;;;;;4934359;28;20088;-82
2022/07/31 05:43:23;;;;;;;0.30;0.30;;;18.70;99.90;;;;;;4931236;28;20047;-82
2022/07/31 05:45:49;;;;;;;0.30;0.30;;;18.70;99.90;;;;;;4949625;28;20506;-82
2022/07/31 05:48:15;;;;;;;0.30;0.30;;;18.80;99.90;;;;;;4929396;28;20058;-82
2022/07/31 05:50:43;;;;;;;0.30;0.30;;;18.90;99.90;;;;;;4927542;28;20059;-78
2022/07/31 05:53:13;;;;;;;0.30;0.30;;;18.90;99.90;;;;;;4935503;28;20055;-82
2022/07/31 05:55:49;;;;;;;0.30;0.30;;;19.00;99.90;;;;;;4926405;28;20058;-81
2022/07/31 05:58:17;;;;;;;0.30;0.30;;;19.10;99.90;;;;;;4928529;28;20047;-82
2022/07/31 06:00:45;;;;;;;0.30;0.30;;;19.20;99.90;;;;;;4933061;28;21455;-82
2022/07/31 06:03:11;;;;;;;0.30;0.30;;;19.40;99.90;;;;;;4933893;28;20073;-82
2022/07/31 06:05:41;;;;;;;0.30;0.30;;;19.40;99.90;;;;;;4935347;28;20050;-82
2022/07/31 06:08:08;;;;;;;0.32;0.32;;;19.50;99.90;;;;;;4933841;28;20062;-83
2022/07/31 06:10:34;;;;;;;0.30;0.30;;;19.40;99.90;;;;;;4928985;28;20057;-82
2022/07/31 06:13:00;;;;;;;0.30;0.30;;;19.50;99.90;;;;;;4917109;28;20369;-82
2022/07/31 06:15:26;;;;;;;0.30;0.30;;;19.60;99.90;;;;;;4938311;28;20043;-82
2022/07/31 06:17:52;;;;;;;0.30;0.30;;;19.70;99.90;;;;;;4934001;28;20120;-82
2022/07/31 06:20:18;;;;;;;0.30;0.30;;;19.70;99.90;;;;;;4931515;28;20053;-81
2022/07/31 06:22:46;;;;;;;0.30;0.30;;;19.70;99.90;;;;;;4933646;28;20904;-82
2022/07/31 06:25:12;;;;;;;0.30;0.30;;;19.80;99.90;;;;;;4927302;28;20129;-82
2022/07/31 06:27:38;;;;;;;0.30;0.30;;;19.90;99.90;;;;;;4928144;28;20163;-82
2022/07/31 06:30:05;;;;;;;0.30;0.30;;;20.00;99.90;;;;;;4913407;28;20395;-81
2022/07/31 06:32:31;;;;;;;0.30;0.30;;;20.10;99.90;;;;;;4935048;28;20046;-81
2022/07/31 06:34:58;;;;;;;0.30;0.30;;;20.10;99.90;;;;;;4932772;28;20207;-81
2022/07/31 06:37:24;;;;;;;0.30;0.30;;;20.20;99.90;;;;;;4930746;28;20058;-81
2022/07/31 06:39:51;;;;;;;0.30;0.30;;;20.40;99.90;;;;;;4926700;28;20606;-81
2022/07/31 06:42:21;;;;;;;0.30;0.30;;;20.50;99.90;;;;;;4926811;28;20043;-82
2022/07/31 06:44:47;;;;;;;0.30;0.30;;;20.60;99.90;;;;;;4933391;28;20066;-82
2022/07/31 06:47:14;;;;;;;0.30;0.30;;;20.70;99.90;;;;;;4948464;28;20046;-81
2022/07/31 06:49:40;;;;;;;0.30;0.30;;;20.70;99.90;;;;;;4933051;28;20482;-81
2022/07/31 06:52:06;;;;;;;0.30;0.30;;;20.70;99.90;;;;;;4934321;28;20592;-81
2022/07/31 06:54:32;;;;;;;0.30;0.30;;;20.70;99.90;;;;;;4938238;28;20059;-82
2022/07/31 06:56:59;;;;;;;0.30;0.30;;;20.70;99.90;;;;;;4918227;28;20525;-81
2022/07/31 06:59:24;;;;;;;0.30;0.30;;;20.70;99.90;;;;;;4931054;28;20050;-82
2022/07/31 07:01:50;;;;;;;0.30;0.30;;;20.70;99.90;;;;;;4915070;28;20054;-81
2022/07/31 07:04:16;;;;;;;0.30;0.30;;;20.80;99.90;;;;;;4929730;28;20050;-81
2022/07/31 07:06:41;;;;;;;0.28;0.28;;;20.90;99.90;;;;;;4926859;28;20053;-81
2022/07/31 07:09:07;;;;;;;0.30;0.30;;;20.90;99.90;;;;;;4927747;28;20165;-79
2022/07/31 07:11:33;;;;;;;0.30;0.30;;;21.00;99.90;;;;;;4926521;28;20059;-79
2022/07/31 07:13:59;;;;;;;0.30;0.30;;;21.10;99.90;;;;;;4929273;28;20117;-79
2022/07/31 07:16:25;;;;;;;0.30;0.30;;;21.20;99.90;;;;;;4935093;28;20051;-81
2022/07/31 07:18:51;;;;;;;0.30;0.30;;;21.10;99.90;;;;;;4928042;28;20174;-78
2022/07/31 07:21:17;;;;;;;0.30;0.30;;;21.20;99.90;;;;;;4940709;28;20114;-80
2022/07/31 07:23:43;;;;;;;0.30;0.30;;;21.30;99.90;;;;;;4934288;28;20047;-78
2022/07/31 07:26:09;;;;;;;0.30;0.30;;;21.40;99.90;;;;;;4931672;28;20485;-80
2022/07/31 07:28:35;;;;;;;0.30;0.30;;;21.40;99.90;;;;;;4937537;28;20418;-81
2022/07/31 07:31:02;;;;;;;0.30;0.30;;;21.40;99.90;;;;;;4934470;28;20271;-78
2022/07/31 07:33:29;;;;;;;0.30;0.30;;;21.50;99.90;;;;;;4937919;28;20047;-80
2022/07/31 07:35:54;;;;;;;0.30;0.30;;;21.50;99.90;;;;;;4932097;28;20541;-78
2022/07/31 07:38:20;;;;;;;0.30;0.30;;;21.60;99.90;;;;;;4932566;28;20142;-78
2022/07/31 07:40:46;;;;;;;0.22;0.22;;;21.60;99.90;;;;;;4935655;28;20047;-79
2022/07/31 07:43:12;;;;;;;0.30;0.30;;;21.60;99.90;;;;;;4935083;28;20057;-79
2022/07/31 07:45:38;;;;;;;0.30;0.30;;;21.60;99.90;;;;;;4916354;28;20121;-79
2022/07/31 07:48:05;;;;;;;0.20;0.20;;;21.60;99.90;;;;;;4915221;28;20047;-79
2022/07/31 07:50:31;;;;;;;0.30;0.30;;;21.60;99.90;;;;;;4953251;28;20066;-79
2022/07/31 07:52:57;;;;;;;0.20;0.20;;;21.60;99.90;;;;;;4937943;28;20550;-79
2022/07/31 07:55:22;;;;;;;0.30;0.30;;;21.70;99.90;;;;;;4933658;28;20065;-78
2022/07/31 07:57:48;;;;;;;0.30;0.30;;;21.60;99.90;;;;;;4934322;28;20055;-78
2022/07/31 08:00:15;;;;;;;0.30;0.30;;;21.80;99.90;;;;;;4955303;28;20105;-78
2022/07/31 08:02:43;;;;;;;0.30;0.30;;;21.80;99.90;;;;;;4939076;28;20133;-80
2022/07/31 08:05:09;;;;;;;0.30;0.30;;;21.70;99.90;;;;;;4950982;28;20539;-80
2022/07/31 08:07:37;;;;;;;0.30;0.30;;;21.70;99.90;;;;;;4935857;28;20077;-79
2022/07/31 08:10:05;;;;;;;0.30;0.30;;;21.70;99.90;;;;;;4931859;28;20042;-81
2022/07/31 08:12:31;;;;;;;0.30;0.30;;;21.70;99.90;;;;;;4936999;28;20146;-80
2022/07/31 08:14:58;;;;;;;0.22;0.22;;;21.60;99.90;;;;;;4956944;28;20042;-80
2022/07/31 08:17:23;;;;;;;0.30;0.30;;;21.70;99.90;;;;;;4935913;28;20050;-78
2022/07/31 08:19:50;;;;;;;0.30;0.30;;;21.60;99.90;;;;;;4954375;28;20055;-78
2022/07/31 08:22:16;;;;;;;0.30;0.30;;;21.70;99.90;;;;;;4942927;28;22003;-79
2022/07/31 08:24:41;;;;;;;0.30;0.30;;;21.70;99.90;;;;;;4954388;28;20085;-77
2022/07/31 08:29:55;;;;;;;0.30;0.30;;;21.70;99.90;;;;;;4931272;28;20141;-78
2022/07/31 08:32:24;;;;;;;0.20;0.20;;;21.80;99.90;;;;;;4955693;28;20042;-78
2022/07/31 08:34:50;;;;;;;0.20;0.20;;;21.80;99.90;;;;;;4935654;28;20072;-81
2022/07/31 08:37:19;;;;;;;0.25;0.25;;;21.80;99.90;;;;;;4955106;28;20129;-80
2022/07/31 08:39:47;;;;;;;0.30;0.30;;;21.60;99.90;;;;;;4934037;28;20046;-79
2022/07/31 08:42:14;;;;;;;0.30;0.30;;;21.60;99.90;;;;;;4933123;28;20468;-79
2022/07/31 08:44:41;;;;;;;0.30;0.30;;;21.60;99.90;;;;;;4940381;28;20654;-79
2022/07/31 08:47:08;;;;;;;0.30;0.30;;;21.70;99.90;;;;;;4937016;28;20410;-78
2022/07/31 08:49:39;;;;;;;0.30;0.30;;;21.90;99.90;;;;;;4902306;28;1257727;-79
2022/07/31 08:52:08;;;;;;;0.30;0.30;;;22.00;99.90;;;;;;4934125;28;20189;-79
2022/07/31 08:54:35;;;;;;;0.30;0.30;;;22.00;99.90;;;;;;4946213;28;20057;-81
2022/07/31 08:57:02;;;;;;;0.30;0.30;;;22.20;99.90;;;;;;4952512;28;20303;-80
2022/07/31 08:59:28;;;;;;;0.22;0.22;;;22.30;99.90;;;;;;4934811;28;20057;-80
2022/07/31 09:01:55;;;;;;;0.30;0.30;;;22.40;99.90;;;;;;4932830;28;20058;-79
2022/07/31 09:04:24;;;;;;;0.30;0.30;;;22.50;99.90;;;;;;4940234;28;20116;-79
2022/07/31 09:06:50;;;;;;;0.20;0.20;;;22.70;99.90;;;;;;4946517;28;20055;-79
2022/07/31 09:09:17;;;;;;;0.20;0.20;;;22.80;99.90;;;;;;4939878;28;20069;-78
2022/07/31 09:11:52;;;;;;;0.30;0.30;;;22.80;99.90;;;;;;4937356;28;20510;-79
2022/07/31 09:14:36;;;;;;;0.30;0.30;;;22.80;99.90;;;;;;4941621;28;20895;-79
2022/07/31 09:17:03;;;;;;;0.30;0.30;;;22.70;99.90;;;;;;4937979;28;20109;-79
2022/07/31 09:19:41;;;;;;;0.30;0.30;;;22.50;99.90;;;;;;4957880;28;20043;-81
2022/07/31 09:22:17;;;;;;;0.30;0.30;;;22.30;99.90;;;;;;4939805;28;20050;-79
2022/07/31 09:24:43;;;;;;;0.22;0.22;;;22.30;99.90;;;;;;4938771;28;20520;-77
2022/07/31 09:27:09;;;;;;;0.20;0.20;;;22.30;99.90;;;;;;4935600;28;20042;-79
2022/07/31 09:29:39;;;;;;;0.30;0.30;;;22.30;99.90;;;;;;4918639;28;20139;-81
2022/07/31 09:32:13;;;;;;;0.30;0.30;;;22.30;99.90;;;;;;4937914;28;20051;-79
2022/07/31 09:34:40;;;;;;;0.30;0.30;;;22.20;99.90;;;;;;4937823;28;20093;-78
2022/07/31 09:37:08;;;;;;;0.30;0.30;;;22.10;99.90;;;;;;4942356;28;20113;-81
2022/07/31 09:39:34;;;;;;;0.20;0.20;;;22.10;99.90;;;;;;4920566;28;20051;-81
2022/07/31 09:42:00;;;;;;;0.30;0.30;;;21.90;99.90;;;;;;4932110;28;20121;-81
2022/07/31 09:44:38;;;;;;;0.30;0.30;;;21.80;99.90;;;;;;4955223;28;20050;-80
2022/07/31 09:47:05;;;;;;;0.30;0.30;;;21.80;99.90;;;;;;4957911;28;20702;-77
2022/07/31 09:49:32;;;;;;;0.30;0.30;;;21.60;99.90;;;;;;4928702;28;20665;-79
2022/07/31 09:52:01;;;;;;;0.30;0.30;;;21.50;99.90;;;;;;4931700;28;20058;-79
2022/07/31 09:54:30;;;;;;;0.30;0.30;;;21.50;99.90;;;;;;4936463;28;20073;-78
2022/07/31 09:56:56;;;;;;;0.30;0.30;;;21.50;99.90;;;;;;4949184;28;20050;-78
2022/07/31 09:59:23;;;;;;;0.30;0.30;;;21.50;99.90;;;;;;4930893;28;20051;-79
2022/07/31 10:01:50;;;;;;;0.30;0.30;;;21.70;99.90;;;;;;4944915;28;20046;-79
2022/07/31 10:04:17;;;;;;;0.30;0.30;;;21.70;99.90;;;;;;4944456;28;20528;-79
2022/07/31 10:06:47;;;;;;;0.30;0.30;;;21.80;99.90;;;;;;4934747;28;20108;-79
2022/07/31 10:09:16;;;;;;;0.30;0.30;;;21.90;99.90;;;;;;4933101;28;20054;-79
2022/07/31 10:11:44;;;;;;;0.30;0.30;;;21.90;99.90;;;;;;4932822;28;20149;-82
2022/07/31 10:14:22;;;;;;;0.30;0.30;;;21.90;99.90;;;;;;4937682;28;20707;-80
2022/07/31 10:16:53;;;;;;;0.25;0.25;;;21.80;99.90;;;;;;4922475;28;20053;-81
2022/07/31 10:19:20;;;;;;;0.30;0.30;;;21.70;99.90;;;;;;4927043;28;20050;-80
2022/07/31 10:22:00;;;;;;;0.30;0.30;;;21.70;99.90;;;;;;4949991;28;20047;-81
2022/07/31 10:24:30;;;;;;;0.20;0.20;;;21.70;99.90;;;;;;4938951;28;20078;-81
2022/07/31 10:26:59;;;;;;;0.30;0.30;;;21.80;99.90;;;;;;4940526;28;20113;-80
2022/07/31 10:29:26;;;;;;;0.30;0.30;;;21.90;99.90;;;;;;4934213;28;20544;-81
2022/07/31 10:31:52;;;;;;;0.30;0.30;;;22.00;99.90;;;;;;4922582;28;20913;-81
2022/07/31 10:34:19;;;;;;;0.30;0.30;;;22.10;99.90;;;;;;4945091;28;20057;-82
2022/07/31 10:36:49;;;;;;;0.20;0.20;;;22.10;99.90;;;;;;4938812;28;20170;-82
2022/07/31 10:39:28;;;;;;;0.30;0.30;;;22.20;99.90;;;;;;4931020;28;20162;-83
2022/07/31 10:42:12;;;;;;;0.30;0.30;;;22.20;99.90;;;;;;4917476;28;20093;-80
2022/07/31 10:44:46;;;;;;;0.30;0.30;;;22.10;99.90;;;;;;4943956;28;20549;-80
2022/07/31 10:47:16;;;;;;;0.30;0.30;;;22.20;99.90;;;;;;4924520;28;20055;-80
2022/07/31 10:49:44;;;;;;;0.30;0.30;;;22.20;99.90;;;;;;4925864;28;20070;-84
2022/07/31 10:52:10;;;;;;;0.30;0.30;;;22.30;99.90;;;;;;4921961;28;20116;-82
2022/07/31 10:54:45;;;;;;;0.28;0.28;;;22.40;99.90;;;;;;4929769;28;20046;-82
2022/07/31 10:57:21;;;;;;;0.40;0.40;;;22.50;99.90;;;;;;4945132;28;20054;-85
2022/07/31 10:59:48;;;;;;;0.22;0.22;;;22.60;99.90;;;;;;4931095;28;20058;-83
2022/07/31 11:02:25;;;;;;;0.30;0.30;;;22.70;99.90;;;;;;4929743;28;20057;-83
2022/07/31 11:04:51;;;;;;;0.20;0.20;;;22.90;99.90;;;;;;4944124;28;20522;-84
2022/07/31 11:07:20;;;;;;;0.30;0.30;;;22.90;99.90;;;;;;4907714;28;20043;-81
2022/07/31 11:09:46;;;;;;;0.30;0.30;;;23.00;99.90;;;;;;4929669;28;20054;-86
2022/07/31 11:12:19;;;;;;;0.30;0.30;;;22.80;99.90;;;;;;4927722;28;20065;-82
2022/07/31 11:14:44;;;;;;;0.30;0.30;;;22.80;99.90;;;;;;4921110;28;20039;-82
2022/07/31 11:17:10;;;;;;;0.40;0.40;;;22.60;99.90;;;;;;4938027;28;20800;-82
2022/07/31 11:19:43;;;;;;;0.30;0.30;;;22.70;99.90;;;;;;4937983;28;22018;-80
2022/07/31 11:22:16;;;;;;;0.30;0.30;;;22.50;99.90;;;;;;4919116;28;20053;-79
2022/07/31 11:24:55;;;;;;;0.35;0.35;;;22.40;99.90;;;;;;4937905;28;20121;-82
2022/07/31 11:27:31;;;;;;;0.30;0.30;;;22.30;99.90;;;;;;4922936;28;20158;-81
2022/07/31 11:30:06;;;;;;;0.30;0.30;;;22.20;99.90;;;;;;4923800;28;20404;-82
2022/07/31 11:32:32;;;;;;;0.28;0.28;;;22.10;99.90;;;;;;4925739;28;20061;-80
2022/07/31 11:34:57;;;;;;;0.30;0.30;;;22.00;99.90;;;;;;4925436;28;20074;-80
2022/07/31 11:37:29;;;;;;;0.43;0.43;;;22.00;99.90;;;;;;4944143;28;20585;-82
2022/07/31 11:39:56;;;;;;;0.30;0.30;;;21.90;99.90;;;;;;4928935;28;20062;-84
2022/07/31 11:42:24;;;;;;;0.30;0.30;;;21.80;99.90;;;;;;4923504;28;20508;-82
2022/07/31 11:44:51;;;;;;;0.30;0.30;;;21.70;99.90;;;;;;4927776;28;20046;-79
2022/07/31 11:47:16;;;;;;;0.30;0.30;;;21.60;99.90;;;;;;4953152;28;20089;-82
2022/07/31 11:49:42;;;;;;;0.30;0.30;;;21.40;99.90;;;;;;4926822;28;20177;-82
2022/07/31 11:52:13;;;;;;;0.30;0.30;;;21.40;99.90;;;;;;4929108;28;20063;-83
2022/07/31 11:54:39;;;;;;;0.30;0.30;;;21.30;99.90;;;;;;4932320;28;20133;-82
2022/07/31 11:57:05;;;;;;;0.30;0.30;;;21.20;99.90;;;;;;4936887;28;20495;-83
2022/07/31 11:59:36;;;;;;;0.30;0.30;;;21.20;99.90;;;;;;4930848;28;20051;-79
2022/07/31 12:02:12;;;;;;;0.30;0.30;;;21.00;99.90;;;;;;4933335;28;20085;-81
2022/07/31 12:04:39;;;;;;;0.30;0.30;;;20.90;99.90;;;;;;4923775;28;20305;-81
2022/07/31 12:07:07;;;;;;;0.40;0.40;;;20.60;99.90;;;;;;4930464;28;20053;-80
2022/07/31 12:09:35;;;;;;;0.30;0.30;;;20.50;99.90;;;;;;4924894;28;20499;-81
2022/07/31 12:12:01;;;;;;;0.40;0.40;;;20.40;99.90;;;;;;4926530;28;20051;-79
2022/07/31 12:14:39;;;;;;;0.30;0.30;;;20.30;99.90;;;;;;4926311;28;20101;-81
2022/07/31 12:17:06;;;;;;;0.30;0.30;;;20.10;99.90;;;;;;4913692;28;20895;-82
2022/07/31 12:19:36;;;;;;;0.45;0.45;;;20.10;99.90;;;;;;4917579;28;20058;-82
2022/07/31 12:22:16;;;;;;;0.30;0.30;;;20.00;99.90;;;;;;4919917;28;20199;-82
2022/07/31 12:24:43;;;;;;;0.30;0.30;;;19.90;99.90;;;;;;4930395;28;20058;-81
2022/07/31 12:27:14;;;;;;;0.32;0.32;;;19.80;99.90;;;;;;4937171;28;20395;-80
2022/07/31 12:29:40;;;;;;;0.30;0.30;;;19.90;99.90;;;;;;4917309;28;20046;-81
2022/07/31 12:32:06;;;;;;;0.30;0.30;;;19.80;99.90;;;;;;4934261;28;20592;-81
2022/07/31 12:35:00;;;;;;;0.30;0.30;;;19.90;99.90;;;;;;4919213;28;20055;-82
2022/07/31 12:37:26;;;;;;;0.45;0.40;;;19.90;99.90;;;;;;4916625;28;20046;-81
2022/07/31 12:39:54;;;;;;;0.30;0.30;;;19.90;99.90;;;;;;4914903;28;20057;-80
2022/07/31 12:42:25;;;;;;;0.30;0.30;;;19.90;99.90;;;;;;4920303;28;20058;-79
2022/07/31 12:44:52;;;;;;;0.30;0.30;;;20.00;99.90;;;;;;4920014;28;20058;-80
2022/07/31 12:47:22;;;;;;;0.30;0.30;;;20.00;99.90;;;;;;4917663;28;20093;-79
2022/07/31 12:49:48;;;;;;;0.30;0.30;;;20.10;99.90;;;;;;4924183;28;20140;-79
2022/07/31 12:52:14;;;;;;;0.30;0.30;;;20.20;99.90;;;;;;4914733;28;20085;-80
2022/07/31 12:54:40;;;;;;;0.30;0.30;;;20.00;99.90;;;;;;4934195;28;20141;-81